Main page
METAR-TAF:

METAR-TAF

Airports :

Skyros, Greece

Skyros Island National Airport

latitude: 38-58-03N, longitude: 024-29-14E, elevation: 13 m

METAR: missing

Time: 01:18 (23:18 UTC)

Forecast

The report was made 3 hours and 18 minutes ago, at 20:00 UTC
Forecast valid from 19 at 21 UTC to 20 at 06 UTC
Wind 12 kt from the South
Visibility 10 km or more
Few clouds at a height of 3000 ft

TAF: LGSY 192000Z 1921/2006 19012KT 9999 FEW030

Weather observations and forecasts of more than 4000 airports (METAR and TAF reports).

The available stations are represented by yellow and red dots on the map.

Hover mouse over dot to see the name of the station.

Then click to see weather observations and forecasts.

To change the map : click on the green buttons with a black cross to zoom in, on the green button with a dash to zoom out, or on the green arrows for adjacent maps.


METAR-TAF: